Time;durP1;ratioP1;P1;durP2;ratioP2;P2;SDS_P1;SDS_P2;PMS_P1;PMS_P2;Temp;Humidity;BMP_temperature;BMP_pressure;BME280_temperature;BME280_humidity;BME280_pressure;Samples;Min_cycle;Max_cycle;Signal;HPM_P1;HPM_P2
2022/05/07 00:00:31;;;;;;;15.15;13.55;;;14.70;58.20;;;;;;4993310;28;20042;-81
2022/05/07 00:02:58;;;;;;;12.18;10.93;;;14.70;58.30;;;;;;4996057;28;20442;-81
2022/05/07 00:05:24;;;;;;;16.25;14.60;;;14.70;58.40;;;;;;4996346;28;20459;-82
2022/05/07 00:07:51;;;;;;;18.70;16.35;;;14.60;58.70;;;;;;4997886;28;20047;-82
2022/05/07 00:10:17;;;;;;;13.40;12.02;;;14.60;59.00;;;;;;4997911;28;20061;-82
2022/05/07 00:12:42;;;;;;;11.50;10.35;;;14.60;59.10;;;;;;4997657;28;20517;-82
2022/05/07 00:15:09;;;;;;;13.10;11.32;;;14.60;59.00;;;;;;4997192;28;20173;-82
2022/05/07 00:20:19;;;;;;;16.48;13.00;;;14.50;58.90;;;;;;4997360;28;20473;-82
2022/05/07 00:22:45;;;;;;;14.18;12.70;;;14.50;59.00;;;;;;4996040;28;20082;-81
2022/05/07 00:25:11;;;;;;;14.40;11.07;;;14.50;59.30;;;;;;4997184;28;20049;-82
2022/05/07 00:27:37;;;;;;;12.13;10.82;;;14.50;59.30;;;;;;4996362;28;20050;-81
2022/05/07 00:30:07;;;;;;;13.60;12.25;;;14.40;59.30;;;;;;4996374;28;20061;-82
2022/05/07 00:32:33;;;;;;;10.27;9.15;;;14.50;59.60;;;;;;4996919;28;20496;-82
2022/05/07 00:34:59;;;;;;;13.52;12.13;;;14.50;59.50;;;;;;4995854;28;20390;-82
2022/05/07 00:37:24;;;;;;;11.75;10.50;;;14.50;59.50;;;;;;4995155;28;20058;-81
2022/05/07 00:39:51;;;;;;;13.25;11.55;;;14.40;59.40;;;;;;4996153;28;20038;-82
2022/05/07 00:42:18;;;;;;;13.40;12.00;;;14.50;59.60;;;;;;4997174;28;20035;-82
2022/05/07 00:44:44;;;;;;;13.50;12.10;;;14.40;59.70;;;;;;4996188;28;20501;-82
2022/05/07 00:47:23;;;;;;;11.50;10.32;;;14.40;59.70;;;;;;4994999;28;20057;-82
2022/05/07 00:49:52;;;;;;;12.95;10.82;;;14.40;59.70;;;;;;4987839;28;20038;-82
2022/05/07 00:52:18;;;;;;;12.32;11.13;;;14.40;59.60;;;;;;4997000;28;20045;-82
2022/05/07 00:54:45;;;;;;;11.55;10.45;;;14.30;59.60;;;;;;4995317;28;20049;-82
2022/05/07 00:57:15;;;;;;;11.05;9.95;;;14.40;59.70;;;;;;4995322;28;20081;-81
2022/05/07 00:59:41;;;;;;;11.98;10.80;;;14.40;59.70;;;;;;4996933;28;20043;-81
2022/05/07 01:02:07;;;;;;;12.35;10.27;;;14.40;59.80;;;;;;4996358;28;20046;-82
2022/05/07 01:04:35;;;;;;;17.80;14.93;;;14.40;59.70;;;;;;4996670;28;20043;-82
2022/05/07 01:07:02;;;;;;;13.10;11.80;;;14.30;59.90;;;;;;4996163;28;20050;-81
2022/05/07 01:09:29;;;;;;;15.13;12.73;;;14.40;60.00;;;;;;4995453;28;20054;-82
2022/05/07 01:11:55;;;;;;;14.75;13.27;;;14.40;60.10;;;;;;4996503;28;20034;-82
2022/05/07 01:14:21;;;;;;;13.20;11.80;;;14.40;60.30;;;;;;4982663;28;20046;-82
2022/05/07 01:16:47;;;;;;;15.48;13.88;;;14.40;60.40;;;;;;4996783;28;20453;-82
2022/05/07 01:19:12;;;;;;;15.57;13.98;;;14.40;60.30;;;;;;4996185;28;20054;-82
2022/05/07 01:21:38;;;;;;;16.80;14.77;;;14.40;60.50;;;;;;4995046;28;20038;-82
2022/05/07 01:24:04;;;;;;;15.73;14.18;;;14.40;60.80;;;;;;4995268;28;20054;-82
2022/05/07 01:26:30;;;;;;;13.50;12.20;;;14.40;60.80;;;;;;4995845;28;20100;-82
2022/05/07 01:29:03;;;;;;;13.32;11.93;;;14.40;61.20;;;;;;4995890;28;20050;-82
2022/05/07 01:31:29;;;;;;;17.80;16.03;;;14.40;60.70;;;;;;4996187;28;20046;-82
2022/05/07 01:33:55;;;;;;;13.75;12.45;;;14.30;60.90;;;;;;4996288;28;20038;-82
2022/05/07 01:36:20;;;;;;;11.80;10.60;;;14.40;61.00;;;;;;4996661;28;20053;-82
2022/05/07 01:38:48;;;;;;;11.98;10.65;;;14.30;60.70;;;;;;4996017;28;20057;-82
2022/05/07 01:41:14;;;;;;;12.55;11.25;;;14.30;60.50;;;;;;4994327;28;20054;-82
2022/05/07 01:43:39;;;;;;;12.27;9.55;;;14.40;60.40;;;;;;4996125;28;20398;-82
2022/05/07 01:48:09;;;;;;;11.18;9.93;;;14.30;60.20;;;;;;4996425;28;20548;-82
2022/05/07 01:48:54;;;;;;;12.23;10.30;;;14.40;60.20;;;;;;4983435;28;20169;-82
2022/05/07 01:51:19;;;;;;;14.02;12.27;;;14.40;60.10;;;;;;4995246;28;20133;-82
2022/05/07 01:53:45;;;;;;;10.43;9.43;;;14.40;60.20;;;;;;4995732;28;20371;-82
2022/05/07 01:56:11;;;;;;;12.88;11.60;;;14.40;60.10;;;;;;4994162;28;20042;-82
2022/05/07 01:58:36;;;;;;;12.07;10.88;;;14.40;60.00;;;;;;4995754;28;20054;-82
2022/05/07 02:01:02;;;;;;;17.20;15.45;;;14.40;60.10;;;;;;4992990;28;20409;-82
2022/05/07 02:03:27;;;;;;;13.93;12.15;;;14.50;60.30;;;;;;4994071;28;20050;-82
2022/05/07 02:05:53;;;;;;;13.10;11.90;;;14.40;60.30;;;;;;5011427;28;20057;-82
2022/05/07 02:08:19;;;;;;;15.00;13.52;;;14.50;60.20;;;;;;4995048;28;20042;-82
2022/05/07 02:10:44;;;;;;;13.70;12.35;;;14.50;60.40;;;;;;4995156;28;20054;-82
2022/05/07 02:13:10;;;;;;;14.82;12.52;;;14.40;60.20;;;;;;4994062;28;20125;-82
2022/05/07 02:15:35;;;;;;;15.95;14.30;;;14.50;60.40;;;;;;4995165;28;20086;-82
2022/05/07 02:18:01;;;;;;;16.50;14.90;;;14.50;60.50;;;;;;4995047;28;20038;-82
2022/05/07 02:20:26;;;;;;;15.75;13.25;;;14.50;60.90;;;;;;4995232;28;20085;-82
2022/05/07 02:22:55;;;;;;;9.70;8.68;;;14.50;61.00;;;;;;4994888;28;20034;-82
2022/05/07 02:25:22;;;;;;;16.75;15.10;;;14.50;60.70;;;;;;4992769;28;20073;-82
2022/05/07 02:27:48;;;;;;;16.15;14.65;;;14.40;60.50;;;;;;4994848;28;20038;-82
2022/05/07 02:30:14;;;;;;;14.52;13.13;;;14.50;60.90;;;;;;4995568;28;20434;-82
2022/05/07 02:32:39;;;;;;;19.40;17.48;;;14.50;60.70;;;;;;4993940;28;20042;-82
2022/05/07 02:35:05;;;;;;;16.42;14.88;;;14.50;60.80;;;;;;4993709;28;20050;-81
2022/05/07 02:37:31;;;;;;;11.50;10.35;;;14.50;61.00;;;;;;4994877;28;20041;-82
2022/05/07 02:39:57;;;;;;;11.73;10.52;;;14.40;60.70;;;;;;4994005;28;20516;-82
2022/05/07 02:42:36;;;;;;;12.65;11.45;;;14.40;60.40;;;;;;4994669;28;20405;-82
2022/05/07 02:45:10;;;;;;;19.67;17.58;;;14.40;60.40;;;;;;4995257;28;20054;-82
2022/05/07 02:47:37;;;;;;;17.17;15.38;;;14.40;61.10;;;;;;4994056;28;20046;-82
2022/05/07 02:50:04;;;;;;;15.43;13.90;;;14.40;61.30;;;;;;4995058;28;20053;-82
2022/05/07 02:52:33;;;;;;;16.65;14.95;;;14.40;61.40;;;;;;4994471;28;20125;-81
2022/05/07 02:55:00;;;;;;;16.52;14.73;;;14.40;61.40;;;;;;4994974;28;20045;-82
2022/05/07 02:57:26;;;;;;;14.73;13.32;;;14.50;62.00;;;;;;4994234;28;20050;-81
2022/05/07 02:59:51;;;;;;;15.43;13.88;;;14.40;61.60;;;;;;4994528;28;20050;-81
2022/05/07 03:02:17;;;;;;;14.32;12.82;;;14.40;61.50;;;;;;4994642;28;20137;-81
2022/05/07 03:04:42;;;;;;;14.68;13.25;;;14.40;61.40;;;;;;4994075;28;20129;-82
2022/05/07 03:07:08;;;;;;;16.50;14.90;;;14.40;61.50;;;;;;4994584;28;20050;-82
2022/05/07 03:09:34;;;;;;;14.20;12.55;;;14.30;61.40;;;;;;4994454;28;20085;-82
2022/05/07 03:11:59;;;;;;;11.73;10.63;;;14.30;61.30;;;;;;4994333;28;20054;-82
2022/05/07 03:14:25;;;;;;;10.93;9.82;;;14.30;61.00;;;;;;4994248;28;20065;-82
2022/05/07 03:16:51;;;;;;;11.45;10.35;;;14.30;60.80;;;;;;4993511;28;20390;-82
2022/05/07 03:19:17;;;;;;;10.85;9.75;;;14.30;60.60;;;;;;4992993;28;20149;-82
2022/05/07 03:21:43;;;;;;;11.57;10.48;;;14.30;60.40;;;;;;4994703;28;20034;-81
2022/05/07 03:24:10;;;;;;;11.52;10.32;;;14.30;60.40;;;;;;4993800;28;20042;-82
2022/05/07 03:26:35;;;;;;;14.82;13.23;;;14.30;60.40;;;;;;4994389;28;20494;-82
2022/05/07 03:29:01;;;;;;;14.55;13.05;;;14.30;60.50;;;;;;4992313;28;20049;-82
2022/05/07 03:31:27;;;;;;;12.05;10.85;;;14.40;60.90;;;;;;4994193;28;20046;-82
2022/05/07 03:33:52;;;;;;;11.73;10.52;;;14.30;60.60;;;;;;4994411;28;20034;-82
2022/05/07 03:36:19;;;;;;;11.27;10.18;;;14.40;60.40;;;;;;4994048;28;20166;-82
2022/05/07 03:38:45;;;;;;;12.77;11.45;;;14.40;60.30;;;;;;4996734;28;20061;-82
2022/05/07 03:41:10;;;;;;;11.18;10.05;;;14.40;60.30;;;;;;4998573;28;20057;-82
2022/05/07 03:43:37;;;;;;;10.93;9.20;;;14.40;60.30;;;;;;5013231;28;20047;-82
2022/05/07 03:46:06;;;;;;;10.55;9.45;;;14.40;60.20;;;;;;4997533;28;20154;-82
2022/05/07 03:48:32;;;;;;;11.95;10.82;;;14.40;60.10;;;;;;4991816;28;20081;-82
2022/05/07 03:50:58;;;;;;;11.52;10.32;;;14.40;60.10;;;;;;4995419;28;20046;-82
2022/05/07 03:53:30;;;;;;;10.77;9.75;;;14.40;60.00;;;;;;4997955;28;20104;-81
2022/05/07 03:56:06;;;;;;;15.52;13.93;;;14.40;60.00;;;;;;4998599;28;20089;-82
2022/05/07 03:58:33;;;;;;;18.10;16.05;;;14.40;60.60;;;;;;4997837;28;20433;-82
2022/05/07 04:00:59;;;;;;;15.70;14.20;;;14.40;61.20;;;;;;4983796;28;20042;-82
2022/05/07 04:03:26;;;;;;;13.45;12.18;;;14.30;61.60;;;;;;4997403;28;20042;-82
2022/05/07 04:05:52;;;;;;;11.02;9.85;;;14.30;61.50;;;;;;4996922;28;20133;-82
2022/05/07 04:08:18;;;;;;;12.55;11.43;;;14.30;61.60;;;;;;4997848;28;20529;-82
2022/05/07 04:10:44;;;;;;;12.35;11.05;;;14.30;60.90;;;;;;4997444;28;20433;-82
2022/05/07 04:13:11;;;;;;;22.65;20.30;;;14.30;61.20;;;;;;4998270;28;20049;-82
2022/05/07 04:15:37;;;;;;;22.27;19.75;;;14.30;61.80;;;;;;4997579;28;20050;-83
2022/05/07 04:18:04;;;;;;;17.83;16.13;;;14.20;62.40;;;;;;4996471;28;20053;-83
2022/05/07 04:20:30;;;;;;;14.57;13.13;;;14.20;62.40;;;;;;4996899;28;20051;-83
2022/05/07 04:22:56;;;;;;;18.27;16.38;;;14.20;62.70;;;;;;4997241;28;20405;-83
2022/05/07 04:25:22;;;;;;;19.05;17.13;;;14.20;62.40;;;;;;4995980;28;20050;-83
2022/05/07 04:27:47;;;;;;;16.83;15.18;;;14.20;63.10;;;;;;4997940;28;20045;-83
2022/05/07 04:30:13;;;;;;;13.00;11.70;;;14.10;62.90;;;;;;4997153;28;20052;-81
2022/05/07 04:32:39;;;;;;;12.98;11.68;;;14.10;62.60;;;;;;4997403;28;20130;-81
2022/05/07 04:35:06;;;;;;;12.77;11.43;;;14.10;62.20;;;;;;4995896;28;20093;-81
2022/05/07 04:37:32;;;;;;;19.25;17.38;;;14.10;62.10;;;;;;4996555;28;20047;-81
2022/05/07 04:39:57;;;;;;;15.82;14.23;;;14.10;62.30;;;;;;4995870;28;20438;-81
2022/05/07 04:42:23;;;;;;;19.83;17.27;;;14.10;62.70;;;;;;4997233;28;20038;-81
2022/05/07 04:44:49;;;;;;;20.83;18.73;;;14.10;62.90;;;;;;4997485;28;20093;-82
2022/05/07 04:47:15;;;;;;;19.85;17.80;;;14.10;63.10;;;;;;4996813;28;20034;-81
2022/05/07 04:49:41;;;;;;;20.50;18.40;;;14.10;63.30;;;;;;4994691;28;20105;-81
2022/05/07 04:52:07;;;;;;;14.90;13.30;;;14.10;63.30;;;;;;4996882;28;20077;-81
2022/05/07 04:54:33;;;;;;;19.60;16.77;;;14.10;63.20;;;;;;4996895;28;20049;-81
2022/05/07 04:56:59;;;;;;;18.08;16.20;;;14.10;63.00;;;;;;4996979;28;20061;-82
2022/05/07 04:59:25;;;;;;;22.88;20.58;;;14.10;63.00;;;;;;4996793;28;20093;-81
2022/05/07 05:01:51;;;;;;;18.13;16.33;;;14.10;63.30;;;;;;4992897;28;20051;-82
2022/05/07 05:04:17;;;;;;;17.88;15.20;;;14.10;63.40;;;;;;4977706;28;20050;-81
2022/05/07 05:06:43;;;;;;;14.27;12.75;;;14.10;63.30;;;;;;4995200;28;20054;-82
2022/05/07 05:09:10;;;;;;;13.95;12.55;;;14.20;63.20;;;;;;4983731;28;20033;-82
2022/05/07 05:11:37;;;;;;;16.48;14.77;;;14.10;62.90;;;;;;5011524;28;20086;-82
2022/05/07 05:15:01;;;;;;;15.70;14.20;;;14.10;62.80;;;;;;5013375;28;20032;-82
2022/05/07 05:16:49;;;;;;;20.55;18.45;;;14.10;62.90;;;;;;4999324;28;20058;-82
2022/05/07 05:19:16;;;;;;;23.90;21.40;;;14.10;63.20;;;;;;4995939;28;20181;-82
2022/05/07 05:21:42;;;;;;;22.30;19.98;;;14.20;63.70;;;;;;4995418;28;20078;-82
2022/05/07 05:24:08;;;;;;;24.63;20.92;;;14.20;64.20;;;;;;4995493;28;20089;-81
2022/05/07 05:26:34;;;;;;;22.70;20.40;;;14.20;64.30;;;;;;4996358;28;20130;-82
2022/05/07 05:28:59;;;;;;;23.83;21.33;;;14.20;64.50;;;;;;4994778;28;20054;-82
2022/05/07 05:31:25;;;;;;;26.95;22.15;;;14.20;64.70;;;;;;4996126;28;20206;-82
2022/05/07 05:33:51;;;;;;;21.25;18.95;;;14.20;65.10;;;;;;4995310;28;20050;-82
2022/05/07 05:36:16;;;;;;;24.20;21.25;;;14.20;65.20;;;;;;4995829;28;20050;-82
2022/05/07 05:38:42;;;;;;;23.48;20.90;;;14.20;65.40;;;;;;4995314;28;20046;-82
2022/05/07 05:41:08;;;;;;;24.48;21.80;;;14.20;65.60;;;;;;4995514;28;20389;-82
2022/05/07 05:43:33;;;;;;;26.13;23.45;;;14.20;65.70;;;;;;4996040;28;20037;-83
2022/05/07 05:45:59;;;;;;;26.85;24.10;;;14.20;65.90;;;;;;4996180;28;20038;-82
2022/05/07 05:48:29;;;;;;;29.17;25.55;;;14.20;66.00;;;;;;5011141;28;20054;-82
2022/05/07 05:50:55;;;;;;;21.83;19.60;;;14.30;66.20;;;;;;4995700;28;20572;-82
2022/05/07 05:53:20;;;;;;;25.05;22.38;;;14.40;66.30;;;;;;4996202;28;20061;-82
2022/05/07 05:55:47;;;;;;;27.00;24.02;;;14.30;66.20;;;;;;4994516;28;20474;-82
2022/05/07 05:58:13;;;;;;;25.25;22.60;;;14.30;66.30;;;;;;4994773;28;20118;-82
2022/05/07 06:00:39;;;;;;;23.02;20.63;;;14.40;66.30;;;;;;4992935;28;20082;-81
2022/05/07 06:03:04;;;;;;;25.35;22.75;;;14.40;66.00;;;;;;4995522;28;20085;-82
2022/05/07 06:05:30;;;;;;;25.48;22.88;;;14.40;65.90;;;;;;4995734;28;20042;-82
2022/05/07 06:07:56;;;;;;;23.00;20.45;;;14.50;66.00;;;;;;4995377;28;20046;-82
2022/05/07 06:10:22;;;;;;;21.98;19.65;;;14.50;65.90;;;;;;4995815;28;20054;-82
2022/05/07 06:12:48;;;;;;;23.80;21.40;;;14.50;65.70;;;;;;4995073;28;20066;-81
2022/05/07 06:15:13;;;;;;;23.33;20.92;;;14.50;65.80;;;;;;4994258;28;20129;-82
2022/05/07 06:17:39;;;;;;;22.35;19.92;;;14.60;65.90;;;;;;4995170;28;20046;-82
2022/05/07 06:20:05;;;;;;;21.27;19.10;;;14.70;65.90;;;;;;4996095;28;20047;-82
2022/05/07 06:22:31;;;;;;;21.83;19.35;;;14.70;65.70;;;;;;4994034;28;20105;-82
2022/05/07 06:27:42;;;;;;;22.92;20.63;;;14.70;65.90;;;;;;4994772;28;20442;-81
2022/05/07 06:30:08;;;;;;;26.42;22.08;;;14.80;66.00;;;;;;4994342;28;20058;-81
2022/05/07 06:32:35;;;;;;;24.30;21.85;;;14.90;66.20;;;;;;4993957;28;20070;-81
2022/05/07 06:35:05;;;;;;;23.05;20.48;;;14.90;66.70;;;;;;4995302;28;20129;-81
2022/05/07 06:37:32;;;;;;;24.20;21.60;;;15.00;66.20;;;;;;4995195;28;20080;-81
2022/05/07 06:39:58;;;;;;;23.88;21.40;;;15.00;65.80;;;;;;4994542;28;20057;-81
2022/05/07 06:42:24;;;;;;;26.35;23.63;;;15.00;65.80;;;;;;4995528;28;20046;-81
2022/05/07 06:44:50;;;;;;;23.23;20.63;;;15.20;65.90;;;;;;4994323;28;20081;-81
2022/05/07 06:47:16;;;;;;;23.38;20.25;;;15.20;65.60;;;;;;4989702;28;20038;-82
2022/05/07 06:49:45;;;;;;;23.35;20.85;;;15.30;65.60;;;;;;4983767;28;20030;-81
2022/05/07 06:52:11;;;;;;;25.77;20.88;;;15.40;65.40;;;;;;4995865;28;20050;-82
2022/05/07 06:54:37;;;;;;;21.95;19.58;;;15.50;65.40;;;;;;4996246;28;20037;-81
2022/05/07 06:57:03;;;;;;;21.58;19.27;;;15.70;65.30;;;;;;4995514;28;20481;-81
2022/05/07 06:59:31;;;;;;;22.55;19.17;;;15.90;65.00;;;;;;4995722;28;20499;-82
2022/05/07 07:01:57;;;;;;;19.98;17.88;;;16.10;64.40;;;;;;4995815;28;20054;-83
2022/05/07 07:04:24;;;;;;;20.90;18.75;;;16.30;63.60;;;;;;4995877;28;20090;-83
2022/05/07 07:06:50;;;;;;;20.85;18.40;;;16.40;63.10;;;;;;4996294;28;20038;-83
2022/05/07 07:09:17;;;;;;;18.58;16.70;;;16.60;63.00;;;;;;4995433;28;20051;-84
2022/05/07 07:11:42;;;;;;;19.50;17.08;;;16.80;62.60;;;;;;4994654;28;20101;-83
2022/05/07 07:14:08;;;;;;;18.35;16.02;;;16.90;62.50;;;;;;4995844;28;20034;-83
2022/05/07 07:16:34;;;;;;;17.75;15.63;;;17.00;62.20;;;;;;4996259;28;20389;-83
2022/05/07 07:19:00;;;;;;;18.95;16.95;;;17.20;62.00;;;;;;4995843;28;20043;-83
2022/05/07 07:21:25;;;;;;;20.40;18.33;;;17.40;61.80;;;;;;4998411;28;20050;-85
2022/05/07 07:23:51;;;;;;;21.38;16.55;;;17.50;61.50;;;;;;5002916;28;20049;-84
2022/05/07 07:26:18;;;;;;;19.88;15.60;;;17.60;61.20;;;;;;5002559;28;20066;-84
2022/05/07 07:28:43;;;;;;;18.83;16.83;;;17.70;60.60;;;;;;4996376;28;20129;-84
2022/05/07 07:31:10;;;;;;;20.17;16.63;;;17.90;60.00;;;;;;5000684;28;20078;-84
2022/05/07 07:33:37;;;;;;;17.08;13.73;;;18.00;59.50;;;;;;5001920;28;20446;-84
2022/05/07 07:36:04;;;;;;;16.92;15.13;;;18.10;59.00;;;;;;5000846;28;20054;-84
2022/05/07 07:38:29;;;;;;;19.95;17.85;;;18.20;58.80;;;;;;5014505;28;20129;-84
2022/05/07 07:40:55;;;;;;;17.55;15.57;;;18.30;58.70;;;;;;5011980;28;20023;-83
2022/05/07 07:43:21;;;;;;;21.20;16.05;;;18.40;58.50;;;;;;5006097;28;20050;-83
2022/05/07 07:48:31;;;;;;;20.55;14.90;;;18.50;58.30;;;;;;5010366;28;20056;-85
2022/05/07 07:50:57;;;;;;;20.27;16.83;;;18.50;58.20;;;;;;5014302;28;20042;-84
2022/05/07 07:53:24;;;;;;;19.85;16.45;;;18.50;58.10;;;;;;5010263;28;20438;-83
2022/05/07 07:55:50;;;;;;;18.33;15.90;;;18.50;58.00;;;;;;4991687;28;20077;-83
2022/05/07 07:58:17;;;;;;;18.95;13.50;;;18.60;58.10;;;;;;4993524;28;20069;-84
2022/05/07 08:00:44;;;;;;;21.27;15.35;;;18.60;57.80;;;;;;4995054;28;20428;-83
2022/05/07 08:03:12;;;;;;;19.48;15.57;;;18.60;57.80;;;;;;4995980;28;20050;-84
2022/05/07 08:05:39;;;;;;;19.95;16.65;;;18.60;57.70;;;;;;4981540;28;20042;-83
2022/05/07 08:13:38;;;;;;;19.85;16.05;;;18.70;57.60;;;;;;4990954;28;20371;-83
2022/05/07 08:16:04;;;;;;;22.42;17.95;;;18.70;57.60;;;;;;4992426;28;20453;-83
2022/05/07 08:18:30;;;;;;;19.00;15.40;;;18.70;57.70;;;;;;4997060;28;20069;-84
2022/05/07 08:20:57;;;;;;;23.05;16.90;;;18.70;57.50;;;;;;4996326;28;20394;-88
2022/05/07 08:23:23;;;;;;;19.40;15.07;;;18.70;57.60;;;;;;5000603;28;20494;-89
2022/05/07 08:25:49;;;;;;;22.83;17.80;;;18.80;57.40;;;;;;4987059;28;20042;-89
2022/05/07 08:28:15;;;;;;;24.17;18.65;;;18.80;57.30;;;;;;5001954;28;20069;-89
2022/05/07 08:30:42;;;;;;;25.25;16.98;;;18.80;57.30;;;;;;4985703;28;20054;-87
2022/05/07 08:33:07;;;;;;;23.27;19.30;;;18.80;57.30;;;;;;4998882;28;20038;-88
2022/05/07 08:35:33;;;;;;;23.80;18.48;;;18.70;57.20;;;;;;4997180;28;20441;-88
2022/05/07 08:37:59;;;;;;;20.77;17.98;;;18.80;57.20;;;;;;5002603;28;20088;-89
2022/05/07 08:40:26;;;;;;;22.70;18.10;;;18.70;57.20;;;;;;5004228;28;20046;-89
2022/05/07 08:42:53;;;;;;;21.15;18.02;;;18.70;57.30;;;;;;5004856;28;20045;-89
2022/05/07 08:45:18;;;;;;;20.95;17.85;;;18.70;57.30;;;;;;5003418;28;20043;-87
2022/05/07 08:47:44;;;;;;;20.88;17.80;;;18.70;57.30;;;;;;5000525;28;20072;-88
2022/05/07 08:50:13;;;;;;;21.75;18.60;;;18.70;57.40;;;;;;5004137;28;20133;-89
2022/05/07 08:52:43;;;;;;;22.35;18.58;;;18.70;57.40;;;;;;5003861;28;20050;-88
2022/05/07 08:55:14;;;;;;;23.58;17.40;;;18.70;57.30;;;;;;5003042;28;20054;-88
2022/05/07 08:57:41;;;;;;;23.00;18.23;;;18.70;57.40;;;;;;5003708;28;20126;-88
2022/05/07 09:00:08;;;;;;;23.23;19.58;;;18.70;57.40;;;;;;5003015;28;20065;-88
2022/05/07 09:02:44;;;;;;;22.30;19.98;;;18.70;57.50;;;;;;5004169;28;20374;-89
2022/05/07 09:05:12;;;;;;;25.65;21.15;;;18.70;57.40;;;;;;5017899;28;20069;-88
2022/05/07 09:07:41;;;;;;;22.00;18.77;;;18.80;57.60;;;;;;5002740;28;20042;-88
2022/05/07 09:10:13;;;;;;;22.45;18.90;;;18.70;57.70;;;;;;5003467;28;20069;-89
2022/05/07 09:12:39;;;;;;;24.67;20.17;;;18.80;57.70;;;;;;4997254;28;20046;-89
2022/05/07 09:15:08;;;;;;;23.08;19.42;;;18.80;57.90;;;;;;4983249;28;20047;-88
2022/05/07 09:17:35;;;;;;;24.13;19.40;;;18.80;58.00;;;;;;4982642;28;20053;-88
2022/05/07 09:20:14;;;;;;;25.52;20.23;;;18.90;58.00;;;;;;4997375;28;20049;-88
2022/05/07 09:22:54;;;;;;;23.42;19.15;;;18.90;57.80;;;;;;4996404;28;20045;-88
2022/05/07 09:25:25;;;;;;;25.38;19.83;;;19.00;58.00;;;;;;4995984;28;20052;-88
2022/05/07 09:27:51;;;;;;;21.90;18.98;;;19.00;58.00;;;;;;4999980;28;20046;-89
2022/05/07 09:30:23;;;;;;;25.25;20.48;;;19.10;58.10;;;;;;4997891;28;20057;-89
2022/05/07 09:32:51;;;;;;;22.35;19.92;;;19.10;58.00;;;;;;4998676;28;20038;-90
2022/05/07 09:38:04;;;;;;;23.05;18.20;;;19.20;57.60;;;;;;4997609;28;20046;-90
2022/05/07 09:40:32;;;;;;;28.70;20.17;;;19.30;57.80;;;;;;4981694;28;20082;-90
2022/05/07 09:42:58;;;;;;;23.75;20.00;;;19.40;57.70;;;;;;4980678;28;20130;-89
2022/05/07 09:45:27;;;;;;;22.38;18.58;;;19.40;57.70;;;;;;4983044;28;20090;-90
2022/05/07 09:47:58;;;;;;;22.02;19.48;;;19.40;57.60;;;;;;4995334;28;20446;-90
2022/05/07 09:58:41;;;;;;;26.58;22.50;;;19.60;57.70;;;;;;4995534;28;20050;-90
2022/05/07 10:01:15;;;;;;;25.10;22.45;;;19.70;57.50;;;;;;4996232;28;20096;-89
2022/05/07 10:04:08;;;;;;;25.00;22.42;;;19.70;58.00;;;;;;4994667;28;20046;-91
2022/05/07 10:06:56;;;;;;;26.02;21.60;;;19.80;57.70;;;;;;5010514;28;20056;-89
2022/05/07 10:10:06;;;;;;;26.80;22.30;;;19.80;57.70;;;;;;4991449;28;20068;-91
2022/05/07 10:12:32;;;;;;;26.00;23.23;;;19.90;57.90;;;;;;4974066;28;20085;-89
2022/05/07 10:15:09;;;;;;;27.42;24.38;;;20.00;57.60;;;;;;4958256;28;20529;-91
2022/05/07 10:17:35;;;;;;;26.02;23.15;;;20.10;57.50;;;;;;4985597;28;20053;-91
2022/05/07 10:20:06;;;;;;;25.85;22.48;;;20.10;57.50;;;;;;4974748;28;20050;-90
2022/05/07 10:22:32;;;;;;;25.38;22.77;;;20.10;57.30;;;;;;4974531;28;20054;-89
2022/05/07 10:25:09;;;;;;;27.42;23.10;;;20.10;56.80;;;;;;4957799;28;20051;-90
2022/05/07 10:27:36;;;;;;;25.55;22.95;;;20.20;56.60;;;;;;4993513;28;20031;-83
2022/05/07 10:30:16;;;;;;;27.38;24.50;;;20.20;56.70;;;;;;4982128;28;20054;-90
2022/05/07 10:33:02;;;;;;;27.55;24.33;;;20.30;56.40;;;;;;4968369;29;20114;-91
2022/05/07 10:35:52;;;;;;;27.00;24.20;;;20.40;56.30;;;;;;4944423;28;20059;-89
2022/05/07 10:38:28;;;;;;;26.73;23.83;;;20.50;56.30;;;;;;4970107;28;20051;-90
2022/05/07 10:41:01;;;;;;;25.17;22.52;;;20.60;56.00;;;;;;4973326;28;20597;-91
2022/05/07 10:43:35;;;;;;;27.52;24.73;;;20.70;55.60;;;;;;4958993;28;20490;-91
2022/05/07 10:46:03;;;;;;;;;;;20.70;55.30;;;;;;4975437;28;20057;-92
2022/05/07 10:48:29;;;;;;;25.40;22.80;;;20.80;55.00;;;;;;4988283;28;19922;-91
2022/05/07 10:51:00;;;;;;;25.02;22.50;;;20.80;54.80;;;;;;4994368;28;20057;-90
2022/05/07 10:53:38;;;;;;;25.48;22.77;;;20.90;54.50;;;;;;4993753;28;20121;-91
2022/05/07 10:56:10;;;;;;;25.55;22.88;;;20.90;54.30;;;;;;4995832;28;20508;-91
2022/05/07 10:58:36;;;;;;;26.73;23.92;;;21.00;54.50;;;;;;4995441;28;20093;-89
2022/05/07 11:01:03;;;;;;;26.40;23.60;;;21.00;54.60;;;;;;4994647;28;20042;-92
2022/05/07 11:03:29;;;;;;;29.00;25.90;;;21.10;54.20;;;;;;4993479;28;20053;-90
2022/05/07 11:06:02;;;;;;;26.95;24.13;;;21.10;54.00;;;;;;4994953;28;20081;-91
2022/05/07 11:08:30;;;;;;;29.60;24.80;;;21.30;54.20;;;;;;4995703;28;20055;-91
2022/05/07 11:11:12;;;;;;;27.05;24.15;;;21.30;53.50;;;;;;4994041;28;20090;-89
2022/05/07 11:13:47;;;;;;;28.70;25.83;;;21.30;53.80;;;;;;4981274;28;20562;-89
2022/05/07 11:16:13;;;;;;;27.13;24.25;;;21.30;53.80;;;;;;4996339;28;20046;-90
2022/05/07 11:18:42;;;;;;;29.17;25.08;;;21.40;54.00;;;;;;4995282;28;20545;-89
2022/05/07 11:21:08;;;;;;;26.67;24.08;;;21.40;53.70;;;;;;4994451;28;20560;-90
2022/05/07 11:23:39;;;;;;;35.08;28.00;;;21.40;53.90;;;;;;4995143;28;20501;-89
2022/05/07 11:26:16;;;;;;;32.28;28.17;;;21.40;54.30;;;;;;4993864;28;20038;-89
2022/05/07 11:28:43;;;;;;;32.95;29.23;;;21.50;54.60;;;;;;4976143;28;20115;-90
2022/05/07 11:31:31;;;;;;;32.95;29.35;;;21.40;54.20;;;;;;4979605;28;20051;-90
2022/05/07 11:34:00;;;;;;;37.25;30.85;;;21.30;53.90;;;;;;4986243;28;20060;-89
2022/05/07 11:36:26;;;;;;;31.52;28.33;;;21.20;54.50;;;;;;4994534;28;20490;-89
2022/05/07 11:39:08;;;;;;;34.63;29.92;;;21.20;54.90;;;;;;4980265;28;20077;-89
2022/05/07 11:41:35;;;;;;;32.10;27.88;;;21.20;55.00;;;;;;4985679;28;20407;-90
2022/05/07 11:46:52;;;;;;;27.70;24.65;;;21.20;54.90;;;;;;4980272;28;20049;-90
2022/05/07 11:49:33;;;;;;;31.67;25.13;;;21.30;55.10;;;;;;4982185;28;20054;-90
2022/05/07 11:52:12;;;;;;;29.63;25.75;;;21.30;54.70;;;;;;4995306;28;20066;-89
2022/05/07 11:54:49;;;;;;;29.55;25.23;;;21.30;54.90;;;;;;4994015;28;20085;-88
2022/05/07 11:57:29;;;;;;;27.15;23.63;;;21.30;54.70;;;;;;4990534;28;20059;-89
2022/05/07 11:59:55;;;;;;;25.83;21.20;;;21.40;54.50;;;;;;4996288;28;20077;-88
2022/05/07 12:02:21;;;;;;;25.75;21.92;;;21.40;54.70;;;;;;4995166;28;20061;-88
2022/05/07 12:05:00;;;;;;;24.00;21.40;;;21.30;54.80;;;;;;4994882;28;20046;-87
2022/05/07 12:07:25;;;;;;;25.52;22.05;;;21.40;54.30;;;;;;4993217;28;20054;-88
2022/05/07 12:09:51;;;;;;;25.90;20.50;;;21.30;54.10;;;;;;5010377;28;20133;-87
2022/05/07 12:12:17;;;;;;;22.88;18.85;;;21.30;54.50;;;;;;5010088;28;20046;-88
2022/05/07 12:14:42;;;;;;;24.50;19.85;;;21.30;54.10;;;;;;4988721;28;20042;-87
2022/05/07 12:19:52;;;;;;;23.88;20.00;;;21.20;53.40;;;;;;4987469;28;20141;-88
2022/05/07 12:30:30;;;;;;;30.13;24.13;;;21.20;54.80;;;;;;4998259;28;19922;-89
2022/05/07 12:32:55;;;;;;;29.58;24.75;;;21.20;54.70;;;;;;4997905;28;20049;-88
2022/05/07 12:35:21;;;;;;;29.38;24.10;;;21.30;54.60;;;;;;4997760;28;20397;-88
2022/05/07 12:37:46;;;;;;;24.92;22.23;;;21.40;54.80;;;;;;4997666;28;20489;-88
2022/05/07 12:40:12;;;;;;;26.33;23.00;;;21.40;54.60;;;;;;4985365;28;20145;-87
2022/05/07 12:42:39;;;;;;;26.05;22.00;;;21.50;54.60;;;;;;4980308;28;20085;-88
2022/05/07 12:45:06;;;;;;;26.85;22.00;;;21.60;54.40;;;;;;4997325;28;20421;-88
2022/05/07 12:47:32;;;;;;;21.27;18.58;;;21.70;53.40;;;;;;4980010;28;20716;-88
2022/05/07 12:49:57;;;;;;;25.55;20.23;;;21.70;52.90;;;;;;4997653;28;20058;-89
2022/05/07 12:52:23;;;;;;;32.45;26.65;;;21.80;53.20;;;;;;4980221;28;20046;-89
2022/05/07 12:54:49;;;;;;;32.55;26.15;;;21.90;53.70;;;;;;5000645;28;20421;-91
2022/05/07 12:57:15;;;;;;;31.38;25.38;;;21.90;53.50;;;;;;4980117;28;20154;-88
2022/05/07 12:59:41;;;;;;;34.97;28.50;;;22.00;53.50;;;;;;4996469;28;20117;-89
2022/05/07 13:02:08;;;;;;;33.78;27.17;;;22.00;53.10;;;;;;4997005;28;20512;-88
2022/05/07 13:04:34;;;;;;;31.35;25.05;;;22.00;53.10;;;;;;4998018;28;20125;-90
2022/05/07 13:07:00;;;;;;;30.67;24.45;;;21.90;52.70;;;;;;4998114;28;20042;-89
2022/05/07 13:09:26;;;;;;;28.23;22.83;;;21.90;53.20;;;;;;4996250;28;20054;-89